FAT - Fresno Yosemite Intl

Pirep is a free, collaborative database of all public and private airports located within the United States. All pilots are welcome to contribute, edit, and improve any airport they have local knowledge about, no registration required.
Are you familiar with this airport? Help out other pilots by adding your local knowledge.
Uploaded photos will be licensed under a CC BY-SA 4.0 license. Please only upload photos you have the rights to use.
Tags
Public
Undocu­mented
METAR / TAF
Edit Tags
Food
Camping
Lodging
Car Rental
Bicycles
Swimming
Golfing
Fishing
Hot Springs
Museum
Flying Clubs
Airpark
Upcoming Events
No upcoming events. Is anything happening here soon?
*
*
*

Where exactly on/near the airport is this event taking place?

Is there a webpage with more information for this event?

Who should be contacted for more information?

What is this event all about?

Repeat every
Description
Transient Parking
Fuel Location
Landing & Tie-down Fees
Crew Car Availability
Flying Clubs
WiFi Access
Airport Statistics
Location: Fresno, CA
Elevation: 335ft
Sectional: San Francisco
Activation date: Jun 1942
Fuel: 100, A, A++ (prices)
Runway 11L/29R: 9,539ft
Runway 11R/29L: 8,008ft
Access: Open to the public
Current Weather — VFR
  • Weather data is strictly informational and not for flight planning purposes.
  • METAR
    2024-05-29 09:53:00 PDT
    Ceiling Wind Temperature Dewpoint Weather Visbility
    Sky clear 280° @ 10kt 73°F 42°F N/A 10SM
    Raw: KFAT 291653Z 28010KT 10SM CLR 23/06 A3005 RMK AO2 SLP172 T02330061
  • TAF
    2024-05-29 11:00:00 PDT – 2024-05-29 22:00:00 PDT
    Ceiling Wind Weather Visbility
    Sky clear 290° @ 10kt, gusts 20kt N/A 6SM
    Clouds: @ ft
    Raw: KFAT 291720Z 2918/3018 29010G20KT P6SM SKC FM300500 31005KT P6SM SKC
  • TAF
    2024-05-29 22:00:00 PDT – 2024-05-30 11:00:00 PDT
    Ceiling Wind Weather Visbility
    Sky clear 310° @ 5kt N/A 6SM
    Clouds: @ ft
    Raw: KFAT 291720Z 2918/3018 29010G20KT P6SM SKC FM300500 31005KT P6SM SKC
Click/tap to add an annotation marker to the map
Airport Webcams
No webcams added yet.
Direct links to live image URLs will be displayed inline on this page. URLs to separate webpages will be linked to.
URL:
Direct links to live image URLs will be displayed inline on this page. URLs to separate webpages will be linked to.
URL:
Remarks
  • Fresno yosemite intl is noise sensitive; noise abatement procedures in effect.
  • No mult apchs and lndgs mon-sat 2200-0700 and sun 1800-1000.
  • Possible wake turbulence or wind shear arr to ry 29l or dep fm ry 11r. jet testing conducted at air national guard ramp lctd at se corner of arpt.
  • Numerous birds invof arpt.
  • Lgtd ry distance remaining markers on south side of ry 11r/29l; lgtd ry distance remaining markers both sides of ry 11l/29r- 11l drm on north side; 29r drm on south side.
Comments
Leave a comment What was your experience like at this airport?